Time,TemperatureF,DewpointF,PressureIn,WindDirection,WindDirectionDegrees,WindSpeedMPH,WindSpeedGustMPH,Humidity,HourlyPrecipIn,Conditions,Clouds,dailyrainin,SoftwareType,DateUTC
2013-06-18 00:00:00,69.2,66.2,29.90,NW,315,2.0,9.0,90,0.00,,---,0.02,VWS V14.01,2013-06-18 04:00:00,
2013-06-18 00:01:00,67.7,65.6,29.89,WSW,252,0.0,1.0,93,0.00,,---,0.00,VWS V14.01,2013-06-18 04:01:00,
2013-06-18 00:06:00,67.7,65.6,29.88,WSW,252,0.0,1.0,93,0.00,,---,0.00,VWS V14.01,2013-06-18 04:06:00,
2013-06-18 00:11:00,67.6,65.5,29.89,WSW,257,0.0,2.0,93,0.00,,---,0.00,VWS V14.01,2013-06-18 04:11:00,
2013-06-18 00:16:00,67.5,65.4,29.89,West,277,1.0,3.0,93,0.00,,---,0.00,VWS V14.01,2013-06-18 04:16:00,
2013-06-18 00:21:00,67.5,65.4,29.89,West,277,0.0,3.0,93,0.00,,---,0.00,VWS V14.01,2013-06-18 04:21:00,
2013-06-18 00:26:00,67.5,65.4,29.90,West,277,0.0,3.0,93,0.00,,---,0.00,VWS V14.01,2013-06-18 04:26:00,
2013-06-18 00:30:00,68.4,66.0,29.89,West,261,0.0,5.0,92,0.00,,---,0.02,VWS V14.01,2013-06-18 04:30:00,
2013-06-18 00:31:00,67.4,65.3,29.89,West,277,0.0,0.0,93,0.00,,---,0.00,VWS V14.01,2013-06-18 04:31:00,
2013-06-18 00:36:00,67.3,65.2,29.89,West,277,0.0,0.0,93,0.00,,---,0.00,VWS V14.01,2013-06-18 04:36:00,
2013-06-18 00:41:00,67.3,65.2,29.90,NE,46,0.0,2.0,93,0.00,,---,0.00,VWS V14.01,2013-06-18 04:41:00,
2013-06-18 00:46:00,67.4,65.3,29.89,NE,47,0.0,2.0,93,0.00,,---,0.00,VWS V14.01,2013-06-18 04:46:00,
2013-06-18 00:51:00,67.5,65.4,29.89,NE,47,0.0,2.0,93,0.00,,---,0.00,VWS V14.01,2013-06-18 04:51:00,
2013-06-18 00:56:00,67.5,65.4,29.89,NE,47,0.0,2.0,93,0.00,,---,0.00,VWS V14.01,2013-06-18 04:56:00,
2013-06-18 01:00:00,67.7,65.6,29.89,WSW,252,1.0,1.0,93,0.00,,---,0.02,VWS V14.01,2013-06-18 05:00:00,
2013-06-18 01:01:00,67.4,65.3,29.89,NE,47,0.0,0.0,93,0.00,,---,0.00,VWS V14.01,2013-06-18 05:01:00,
2013-06-18 01:06:00,67.4,65.3,29.89,NE,47,0.0,0.0,93,0.00,,---,0.00,VWS V14.01,2013-06-18 05:06:00,
2013-06-18 01:11:00,67.3,65.2,29.88,NE,47,0.0,0.0,93,0.00,,---,0.00,VWS V14.01,2013-06-18 05:11:00,
2013-06-18 01:16:00,67.2,65.4,29.88,NE,47,0.0,0.0,94,0.00,,---,0.00,VWS V14.01,2013-06-18 05:16:00,
2013-06-18 01:21:00,67.2,65.1,29.88,NE,47,0.0,0.0,93,0.00,,---,0.00,VWS V14.01,2013-06-18 05:21:00,
2013-06-18 01:26:00,67.2,65.4,29.89,NE,47,0.0,0.0,94,0.00,,---,0.00,VWS V14.01,2013-06-18 05:26:00,
2013-06-18 01:30:00,67.4,65.3,29.90,West,277,0.0,3.0,93,0.00,,---,0.00,VWS V14.01,2013-06-18 05:30:00,
2013-06-18 01:31:00,67.2,65.4,29.88,NE,47,0.0,0.0,94,0.00,,---,0.00,VWS V14.01,2013-06-18 05:31:00,
2013-06-18 01:36:00,67.1,65.3,29.88,NE,47,0.0,0.0,94,0.00,,---,0.00,VWS V14.01,2013-06-18 05:36:00,
2013-06-18 01:41:00,67.1,65.3,29.88,NE,47,0.0,0.0,94,0.00,,---,0.00,VWS V14.01,2013-06-18 05:41:00,
2013-06-18 01:46:00,67.0,65.2,29.88,NE,47,0.0,0.0,94,0.00,,---,0.00,VWS V14.01,2013-06-18 05:46:00,
2013-06-18 01:51:00,67.0,65.2,29.88,NE,47,0.0,0.0,94,0.00,,---,0.00,VWS V14.01,2013-06-18 05:51:00,
2013-06-18 01:56:00,67.0,65.2,29.88,NE,47,0.0,0.0,94,0.00,,---,0.00,VWS V14.01,2013-06-18 05:56:00,
2013-06-18 02:00:00,67.4,65.3,29.89,NE,47,0.0,2.0,93,0.00,,---,0.00,VWS V14.01,2013-06-18 06:00:00,
2013-06-18 02:01:00,67.0,65.2,29.88,NE,47,0.0,0.0,94,0.00,,---,0.00,VWS V14.01,2013-06-18 06:01:00,
2013-06-18 02:06:00,67.0,65.2,29.88,NE,47,0.0,0.0,94,0.00,,---,0.00,VWS V14.01,2013-06-18 06:06:00,
2013-06-18 02:11:00,67.0,65.5,29.88,NE,47,0.0,0.0,95,0.00,,---,0.00,VWS V14.01,2013-06-18 06:11:00,
2013-06-18 02:16:00,67.1,65.6,29.87,NE,47,0.0,0.0,95,0.00,,---,0.00,VWS V14.01,2013-06-18 06:16:00,
2013-06-18 02:21:00,67.0,65.5,29.87,NE,47,0.0,0.0,95,0.00,,---,0.00,VWS V14.01,2013-06-18 06:21:00,
2013-06-18 02:26:00,67.0,65.5,29.86,NE,47,0.0,0.0,95,0.00,,---,0.00,VWS V14.01,2013-06-18 06:26:00,
2013-06-18 02:30:00,67.2,65.4,29.88,NE,47,0.0,0.0,94,0.00,,---,0.00,VWS V14.01,2013-06-18 06:30:00,
2013-06-18 02:31:00,67.0,65.5,29.86,NE,47,0.0,0.0,95,0.00,,---,0.00,VWS V14.01,2013-06-18 06:31:00,
2013-06-18 02:36:00,67.0,65.5,29.86,NE,47,0.0,0.0,95,0.00,,---,0.00,VWS V14.01,2013-06-18 06:36:00,
2013-06-18 02:41:00,67.0,65.5,29.86,NE,47,0.0,0.0,95,0.00,,---,0.00,VWS V14.01,2013-06-18 06:41:00,
2013-06-18 02:46:00,67.0,65.5,29.86,NE,47,0.0,0.0,95,0.00,,---,0.00,VWS V14.01,2013-06-18 06:46:00,
2013-06-18 02:51:00,66.9,65.4,29.86,South,188,0.0,0.0,95,0.00,,---,0.00,VWS V14.01,2013-06-18 06:51:00,
2013-06-18 02:56:00,67.0,65.5,29.86,South,178,1.0,2.0,95,0.00,,---,0.00,VWS V14.01,2013-06-18 06:56:00,
2013-06-18 03:00:00,67.0,65.2,29.88,NE,47,0.0,0.0,94,0.00,,---,0.00,VWS V14.01,2013-06-18 07:00:00,
2013-06-18 03:01:00,67.1,65.6,29.86,SW,215,1.0,1.0,95,0.00,,---,0.00,VWS V14.01,2013-06-18 07:01:00,
2013-06-18 03:06:00,67.1,65.6,29.86,SSW,199,1.0,5.0,95,0.00,,---,0.00,VWS V14.01,2013-06-18 07:06:00,
2013-06-18 03:11:00,67.2,66.0,29.86,SSW,199,0.0,5.0,96,0.00,,---,0.00,VWS V14.01,2013-06-18 07:11:00,
2013-06-18 03:16:00,67.3,66.1,29.86,SW,230,0.0,5.0,96,0.00,,---,0.00,VWS V14.01,2013-06-18 07:16:00,
2013-06-18 03:21:00,67.4,65.9,29.85,SW,215,2.0,5.0,95,0.00,,---,0.00,VWS V14.01,2013-06-18 07:21:00,
2013-06-18 03:26:00,67.5,66.0,29.85,SW,217,0.0,5.0,95,0.00,,---,0.00,VWS V14.01,2013-06-18 07:26:00,
2013-06-18 03:30:00,67.0,65.5,29.86,NE,47,0.0,0.0,95,0.00,,---,0.00,VWS V14.01,2013-06-18 07:30:00,
2013-06-18 03:31:00,67.4,65.9,29.85,SW,234,0.0,2.0,95,0.00,,---,0.00,VWS V14.01,2013-06-18 07:31:00,
2013-06-18 03:36:00,67.5,66.3,29.85,SW,234,0.0,2.0,96,0.00,,---,0.00,VWS V14.01,2013-06-18 07:36:00,
2013-06-18 03:41:00,67.5,66.0,29.85,SSW,205,0.0,2.0,95,0.00,,---,0.00,VWS V14.01,2013-06-18 07:41:00,
2013-06-18 03:46:00,67.4,65.9,29.85,SW,217,0.0,3.0,95,0.00,,---,0.00,VWS V14.01,2013-06-18 07:46:00,
2013-06-18 03:51:00,67.4,66.2,29.85,SSE,167,0.0,5.0,96,0.00,,---,0.00,VWS V14.01,2013-06-18 07:51:00,
2013-06-18 03:56:00,67.4,66.2,29.84,SW,214,0.0,5.0,96,0.00,,---,0.00,VWS V14.01,2013-06-18 07:56:00,
2013-06-18 04:00:00,67.1,65.6,29.86,SW,215,1.0,5.0,95,0.00,,---,0.00,VWS V14.01,2013-06-18 08:00:00,
2013-06-18 04:01:00,67.5,66.3,29.84,SW,217,3.0,3.0,96,0.00,,---,0.00,VWS V14.01,2013-06-18 08:01:00,
2013-06-18 04:06:00,67.6,66.4,29.84,SSW,205,0.0,4.0,96,0.00,,---,0.00,VWS V14.01,2013-06-18 08:06:00,
2013-06-18 04:11:00,68.0,66.8,29.84,SW,235,0.0,4.0,96,0.00,,---,0.00,VWS V14.01,2013-06-18 08:11:00,
2013-06-18 04:16:00,68.2,67.0,29.84,SSW,202,0.0,5.0,96,0.00,,---,0.00,VWS V14.01,2013-06-18 08:16:00,
2013-06-18 04:21:00,68.5,67.6,29.84,SW,228,0.0,5.0,97,0.00,,---,0.00,VWS V14.01,2013-06-18 08:21:00,
2013-06-18 04:26:00,68.6,67.7,29.84,SSE,153,0.0,5.0,97,0.00,,---,0.00,VWS V14.01,2013-06-18 08:26:00,
2013-06-18 04:30:00,67.4,65.9,29.85,SSW,195,1.0,5.0,95,0.00,,---,0.00,VWS V14.01,2013-06-18 08:30:00,
2013-06-18 04:31:00,68.6,67.4,29.84,SSW,193,0.0,2.0,96,0.00,,---,0.00,VWS V14.01,2013-06-18 08:31:00,
2013-06-18 04:36:00,68.5,67.3,29.84,SSW,198,0.0,2.0,96,0.00,,---,0.00,VWS V14.01,2013-06-18 08:36:00,
2013-06-18 04:41:00,68.4,67.2,29.84,SW,234,1.0,2.0,96,0.00,,---,0.00,VWS V14.01,2013-06-18 08:41:00,
2013-06-18 04:46:00,68.4,67.2,29.85,SW,234,0.0,2.0,96,0.00,,---,0.00,VWS V14.01,2013-06-18 08:46:00,
2013-06-18 04:51:00,68.4,67.2,29.84,SW,234,0.0,2.0,96,0.00,,---,0.00,VWS V14.01,2013-06-18 08:51:00,
2013-06-18 04:56:00,68.3,67.1,29.84,SSW,213,0.0,2.0,96,0.00,,---,0.00,VWS V14.01,2013-06-18 08:56:00,
2013-06-18 05:00:00,67.5,66.3,29.84,SW,223,0.0,5.0,96,0.00,,---,0.00,VWS V14.01,2013-06-18 09:00:00,
2013-06-18 05:01:00,68.2,67.0,29.84,SSW,213,0.0,0.0,96,0.00,,---,0.00,VWS V14.01,2013-06-18 09:01:00,
2013-06-18 05:06:00,68.1,66.9,29.84,SSW,213,0.0,0.0,96,0.00,,---,0.00,VWS V14.01,2013-06-18 09:06:00,
2013-06-18 05:11:00,68.0,66.8,29.84,SSW,213,0.0,0.0,96,0.00,,---,0.00,VWS V14.01,2013-06-18 09:11:00,
2013-06-18 05:16:00,68.0,66.8,29.84,SSW,213,0.0,0.0,96,0.00,,---,0.00,VWS V14.01,2013-06-18 09:16:00,
2013-06-18 05:21:00,67.9,66.7,29.84,SSW,213,0.0,0.0,96,0.00,,---,0.00,VWS V14.01,2013-06-18 09:21:00,
2013-06-18 05:26:00,68.0,66.8,29.84,SSW,192,0.0,3.0,96,0.00,,---,0.00,VWS V14.01,2013-06-18 09:26:00,
2013-06-18 05:30:00,68.6,67.4,29.84,SSW,198,2.0,5.0,96,0.00,,---,0.00,VWS V14.01,2013-06-18 09:30:00,
2013-06-18 05:31:00,68.1,66.9,29.84,SSW,199,0.0,0.0,96,0.00,,---,0.00,VWS V14.01,2013-06-18 09:31:00,
2013-06-18 05:36:00,68.1,66.9,29.84,WSW,253,0.0,3.0,96,0.00,,---,0.00,VWS V14.01,2013-06-18 09:36:00,
2013-06-18 05:41:00,68.1,66.9,29.85,WSW,253,0.0,3.0,96,0.00,,---,0.00,VWS V14.01,2013-06-18 09:41:00,
2013-06-18 05:46:00,68.1,66.9,29.85,WSW,253,0.0,3.0,96,0.00,,---,0.00,VWS V14.01,2013-06-18 09:46:00,
2013-06-18 05:51:00,68.1,66.9,29.85,WSW,253,0.0,3.0,96,0.00,,---,0.00,VWS V14.01,2013-06-18 09:51:00,
2013-06-18 05:56:00,68.2,67.0,29.85,WSW,253,0.0,3.0,96,0.00,,---,0.00,VWS V14.01,2013-06-18 09:56:00,
2013-06-18 06:00:00,68.2,67.0,29.84,SSW,213,0.0,2.0,96,0.00,,---,0.00,VWS V14.01,2013-06-18 10:00:00,
2013-06-18 06:01:00,68.1,66.9,29.84,WSW,253,0.0,1.0,96,0.00,,---,0.00,VWS V14.01,2013-06-18 10:01:00,
2013-06-18 06:06:00,68.1,66.9,29.85,WSW,253,0.0,1.0,96,0.00,,---,0.00,VWS V14.01,2013-06-18 10:06:00,
2013-06-18 06:11:00,68.1,66.9,29.85,WSW,253,0.0,1.0,96,0.00,,---,0.00,VWS V14.01,2013-06-18 10:11:00,
2013-06-18 06:15:00,68.2,67.3,29.85,WSW,253,0.0,1.0,97,0.00,,---,0.00,VWS V14.01,2013-06-18 10:15:00,
2013-06-18 06:20:00,68.4,67.5,29.85,SSW,211,0.0,4.0,97,0.00,,---,0.00,VWS V14.01,2013-06-18 10:20:00,
2013-06-18 06:25:00,68.6,67.7,29.85,SSW,213,0.0,4.0,97,0.00,,---,0.00,VWS V14.01,2013-06-18 10:25:00,
2013-06-18 06:30:00,68.6,67.7,29.85,SW,235,1.0,1.0,97,0.00,,---,0.00,VWS V14.01,2013-06-18 10:30:00,
2013-06-18 06:35:00,68.7,67.8,29.85,SW,235,1.0,1.0,97,0.00,,---,0.00,VWS V14.01,2013-06-18 10:35:00,
2013-06-18 06:40:00,68.9,68.0,29.85,SSW,202,0.0,3.0,97,0.00,,---,0.00,VWS V14.01,2013-06-18 10:40:00,
2013-06-18 06:45:00,69.0,68.1,29.85,SW,217,1.0,4.0,97,0.00,,---,0.00,VWS V14.01,2013-06-18 10:45:00,
2013-06-18 06:50:00,69.3,68.4,29.85,SW,225,0.0,4.0,97,0.00,,---,0.00,VWS V14.01,2013-06-18 10:50:00,
2013-06-18 06:55:00,69.5,68.6,29.86,SW,215,0.0,4.0,97,0.00,,---,0.00,VWS V14.01,2013-06-18 10:55:00,
2013-06-18 07:00:00,69.7,68.8,29.86,SSW,196,1.0,1.0,97,0.00,,---,0.00,VWS V14.01,2013-06-18 11:00:00,
2013-06-18 07:05:00,69.9,69.0,29.86,SSW,209,0.0,3.0,97,0.00,,---,0.00,VWS V14.01,2013-06-18 11:05:00,
2013-06-18 07:10:00,70.0,69.1,29.86,SSE,151,0.0,6.0,97,0.00,,---,0.00,VWS V14.01,2013-06-18 11:10:00,
2013-06-18 07:15:00,70.1,69.2,29.86,SW,215,0.0,6.0,97,0.00,,---,0.00,VWS V14.01,2013-06-18 11:15:00,
2013-06-18 07:20:00,70.2,69.3,29.86,South,187,1.0,6.0,97,0.00,,---,0.00,VWS V14.01,2013-06-18 11:20:00,
2013-06-18 07:25:00,70.3,69.4,29.86,South,173,0.0,6.0,97,0.00,,---,0.00,VWS V14.01,2013-06-18 11:25:00,
2013-06-18 07:30:00,70.4,69.5,29.86,SE,142,1.0,2.0,97,0.00,,---,0.00,VWS V14.01,2013-06-18 11:30:00,
2013-06-18 07:35:00,70.4,69.5,29.86,SW,220,0.0,4.0,97,0.00,,---,0.00,VWS V14.01,2013-06-18 11:35:00,
2013-06-18 07:40:00,70.4,69.2,29.86,SSE,147,2.0,4.0,96,0.00,,---,0.00,VWS V14.01,2013-06-18 11:40:00,
2013-06-18 07:45:00,70.5,69.3,29.86,SW,215,2.0,5.0,96,0.00,,---,0.00,VWS V14.01,2013-06-18 11:45:00,
2013-06-18 07:50:00,70.5,69.3,29.86,SE,131,3.0,5.0,96,0.00,,---,0.00,VWS V14.01,2013-06-18 11:50:00,
2013-06-18 07:55:00,70.5,69.3,29.86,SSW,202,0.0,5.0,96,0.00,,---,0.00,VWS V14.01,2013-06-18 11:55:00,
2013-06-18 08:00:00,70.5,69.3,29.86,ESE,112,1.0,1.0,96,0.00,,---,0.00,VWS V14.01,2013-06-18 12:00:00,
2013-06-18 08:05:00,70.6,69.4,29.86,SSW,208,0.0,4.0,96,0.00,,---,0.00,VWS V14.01,2013-06-18 12:05:00,
2013-06-18 08:10:00,70.8,69.6,29.86,SE,131,1.0,4.0,96,0.00,,---,0.00,VWS V14.01,2013-06-18 12:10:00,
2013-06-18 08:15:00,70.9,69.4,29.87,SSW,211,0.0,4.0,95,0.00,,---,0.00,VWS V14.01,2013-06-18 12:15:00,
2013-06-18 08:20:00,70.9,69.4,29.87,SSW,205,1.0,4.0,95,0.00,,---,0.00,VWS V14.01,2013-06-18 12:20:00,
2013-06-18 08:25:00,71.0,69.5,29.87,South,169,3.0,4.0,95,0.00,,---,0.00,VWS V14.01,2013-06-18 12:25:00,
2013-06-18 08:30:00,71.0,69.2,29.87,SSE,154,0.0,0.0,94,0.00,,---,0.00,VWS V14.01,2013-06-18 12:30:00,
2013-06-18 08:35:00,71.2,69.7,29.87,West,265,0.0,2.0,95,0.00,,---,0.00,VWS V14.01,2013-06-18 12:35:00,
2013-06-18 08:40:00,71.3,69.5,29.86,WSW,255,0.0,2.0,94,0.00,,---,0.00,VWS V14.01,2013-06-18 12:40:00,
2013-06-18 08:45:00,71.6,69.8,29.86,WSW,255,2.0,2.0,94,0.00,,---,0.00,VWS V14.01,2013-06-18 12:45:00,
2013-06-18 08:50:00,71.9,70.1,29.86,SW,215,0.0,3.0,94,0.00,,---,0.00,VWS V14.01,2013-06-18 12:50:00,
2013-06-18 08:55:00,72.2,70.4,29.87,SSW,196,2.0,3.0,94,0.00,,---,0.00,VWS V14.01,2013-06-18 12:55:00,
2013-06-18 09:00:00,72.6,70.8,29.86,SSW,197,0.0,3.0,94,0.00,,---,0.00,VWS V14.01,2013-06-18 13:00:00,
2013-06-18 09:05:00,72.9,70.8,29.86,SSW,204,0.0,2.0,93,0.00,,---,0.00,VWS V14.01,2013-06-18 13:05:00,
2013-06-18 09:10:00,73.3,71.2,29.86,SW,234,1.0,2.0,93,0.00,,---,0.00,VWS V14.01,2013-06-18 13:10:00,
2013-06-18 09:15:00,73.6,71.5,29.86,SW,215,0.0,5.0,93,0.00,,---,0.00,VWS V14.01,2013-06-18 13:15:00,
2013-06-18 09:20:00,73.9,71.4,29.86,South,180,1.0,5.0,92,0.00,,---,0.00,VWS V14.01,2013-06-18 13:20:00,
2013-06-18 09:25:00,74.6,72.1,29.86,South,187,1.0,5.0,92,0.00,,---,0.00,VWS V14.01,2013-06-18 13:25:00,
2013-06-18 09:30:00,75.1,72.6,29.86,South,180,0.0,5.0,92,0.00,,---,0.00,VWS V14.01,2013-06-18 13:30:00,
2013-06-18 09:35:00,75.7,72.9,29.86,WSW,256,1.0,3.0,91,0.00,,---,0.00,VWS V14.01,2013-06-18 13:35:00,
2013-06-18 09:40:00,76.3,72.8,29.86,SW,215,0.0,6.0,89,0.00,,---,0.00,VWS V14.01,2013-06-18 13:40:00,
2013-06-18 09:45:00,76.9,73.4,29.86,SW,215,2.0,6.0,89,0.00,,---,0.00,VWS V14.01,2013-06-18 13:45:00,
2013-06-18 09:50:00,77.4,73.6,29.85,SSW,196,1.0,6.0,88,0.00,,---,0.00,VWS V14.01,2013-06-18 13:50:00,
2013-06-18 09:55:00,77.7,73.2,29.85,South,182,0.0,6.0,86,0.00,,---,0.00,VWS V14.01,2013-06-18 13:55:00,
2013-06-18 10:00:00,77.9,73.4,29.85,South,188,0.0,6.0,86,0.00,,---,0.00,VWS V14.01,2013-06-18 14:00:00,
2013-06-18 10:05:00,78.0,73.1,29.85,SSE,163,1.0,7.0,85,0.00,,---,0.00,VWS V14.01,2013-06-18 14:05:00,
2013-06-18 10:10:00,78.2,73.7,29.85,SW,229,4.0,7.0,86,0.00,,---,0.00,VWS V14.01,2013-06-18 14:10:00,
2013-06-18 10:15:00,78.2,73.7,29.85,SSW,196,1.0,7.0,86,0.00,,---,0.00,VWS V14.01,2013-06-18 14:15:00,
2013-06-18 10:20:00,78.3,73.4,29.84,SSE,149,1.0,7.0,85,0.00,,---,0.00,VWS V14.01,2013-06-18 14:20:00,
2013-06-18 10:25:00,78.3,73.8,29.85,South,188,0.0,7.0,86,0.00,,---,0.00,VWS V14.01,2013-06-18 14:25:00,
2013-06-18 10:30:00,78.4,73.5,29.85,SE,130,5.0,7.0,85,0.00,,---,0.00,VWS V14.01,2013-06-18 14:30:00,
2013-06-18 10:35:00,78.2,72.6,29.85,ESE,117,1.0,6.0,83,0.00,,---,0.00,VWS V14.01,2013-06-18 14:35:00,
2013-06-18 10:40:00,77.8,72.2,29.85,SSE,167,2.0,7.0,83,0.00,,---,0.00,VWS V14.01,2013-06-18 14:40:00,
2013-06-18 10:45:00,77.3,72.1,29.85,SSE,152,2.0,8.0,84,0.00,,---,0.00,VWS V14.01,2013-06-18 14:45:00,
2013-06-18 10:50:00,77.1,71.9,29.85,SSE,163,1.0,8.0,84,0.00,,---,0.00,VWS V14.01,2013-06-18 14:50:00,
2013-06-18 10:55:00,77.1,72.2,29.85,South,190,0.0,8.0,85,0.00,,---,0.00,VWS V14.01,2013-06-18 14:55:00,
2013-06-18 11:00:00,77.3,72.4,29.85,SE,135,0.0,8.0,85,0.00,,---,0.00,VWS V14.01,2013-06-18 15:00:00,
2013-06-18 11:05:00,77.4,72.2,29.85,SE,134,4.0,6.0,84,0.00,,---,0.00,VWS V14.01,2013-06-18 15:05:00,
2013-06-18 11:10:00,77.6,72.4,29.85,SSE,157,1.0,6.0,84,0.00,,---,0.00,VWS V14.01,2013-06-18 15:10:00,
2013-06-18 11:15:00,77.7,72.8,29.84,SE,140,5.0,7.0,85,0.00,,---,0.00,VWS V14.01,2013-06-18 15:15:00,
2013-06-18 11:20:00,77.8,72.9,29.84,SSW,205,0.0,7.0,85,0.00,,---,0.00,VWS V14.01,2013-06-18 15:20:00,
2013-06-18 11:25:00,78.2,73.0,29.84,SSW,197,1.0,7.0,84,0.00,,---,0.00,VWS V14.01,2013-06-18 15:25:00,
2013-06-18 11:30:00,78.2,72.3,29.85,SE,144,5.0,8.0,82,0.00,,---,0.00,VWS V14.01,2013-06-18 15:30:00,
2013-06-18 11:35:00,77.7,72.1,29.84,WSW,247,2.0,6.0,83,0.00,,---,0.00,VWS V14.01,2013-06-18 15:35:00,
2013-06-18 11:40:00,77.2,71.6,29.84,SW,215,0.0,6.0,83,0.00,,---,0.00,VWS V14.01,2013-06-18 15:40:00,
2013-06-18 11:45:00,76.8,71.6,29.84,SW,229,2.0,6.0,84,0.00,,---,0.00,VWS V14.01,2013-06-18 15:45:00,
2013-06-18 11:50:00,76.6,71.8,29.84,ESE,107,3.0,6.0,85,0.00,,---,0.00,VWS V14.01,2013-06-18 15:50:00,
2013-06-18 11:55:00,76.7,72.2,29.84,South,186,1.0,6.0,86,0.00,,---,0.00,VWS V14.01,2013-06-18 15:55:00,
2013-06-18 12:00:00,76.8,71.9,29.84,South,185,5.0,6.0,85,0.00,,---,0.00,VWS V14.01,2013-06-18 16:00:00,
2013-06-18 12:05:00,76.8,71.9,29.84,SE,137,1.0,5.0,85,0.00,,---,0.00,VWS V14.01,2013-06-18 16:05:00,
2013-06-18 12:10:00,76.9,72.7,29.84,SW,219,2.0,7.0,87,0.00,,---,0.00,VWS V14.01,2013-06-18 16:10:00,
2013-06-18 12:15:00,77.2,73.0,29.83,WSW,254,1.0,7.0,87,0.00,,---,0.00,VWS V14.01,2013-06-18 16:15:00,
2013-06-18 12:20:00,77.4,72.9,29.83,South,171,1.0,7.0,86,0.00,,---,0.00,VWS V14.01,2013-06-18 16:20:00,
2013-06-18 12:25:00,77.1,72.2,29.83,SSE,159,6.0,9.0,85,0.00,,---,0.00,VWS V14.01,2013-06-18 16:25:00,
2013-06-18 12:30:00,76.8,71.9,29.82,SSE,151,0.0,9.0,85,0.00,,---,0.00,VWS V14.01,2013-06-18 16:30:00,
2013-06-18 12:35:00,76.5,71.7,29.82,SE,142,3.0,5.0,85,0.00,,---,0.00,VWS V14.01,2013-06-18 16:35:00,
2013-06-18 12:39:00,76.2,71.7,29.82,SE,138,0.0,6.0,86,0.00,,---,0.00,VWS V14.01,2013-06-18 16:39:00,
2013-06-18 12:44:00,76.0,71.5,29.82,SE,133,2.0,6.0,86,0.00,,---,0.00,VWS V14.01,2013-06-18 16:44:00,
2013-06-18 12:49:00,75.7,71.2,29.82,South,178,3.0,6.0,86,0.00,,---,0.00,VWS V14.01,2013-06-18 16:49:00,
2013-06-18 12:54:00,75.2,70.7,29.81,ESE,123,2.0,7.0,86,0.00,,---,0.00,VWS V14.01,2013-06-18 16:54:00,
2013-06-18 12:59:00,74.7,70.6,29.81,SSW,207,5.0,8.0,87,0.00,,---,0.00,VWS V14.01,2013-06-18 16:59:00,
2013-06-18 13:00:00,76.8,71.9,29.84,South,180,2.0,6.0,85,0.00,,---,0.00,VWS V14.01,2013-06-18 17:00:00,
2013-06-18 13:04:00,74.2,70.4,29.81,South,188,2.0,6.0,88,0.00,,---,0.00,VWS V14.01,2013-06-18 17:04:00,
2013-06-18 13:09:00,74.1,70.7,29.81,SSE,148,0.0,7.0,89,0.00,,---,0.00,VWS V14.01,2013-06-18 17:09:00,
2013-06-18 13:14:00,74.0,70.6,29.80,SSW,194,4.0,7.0,89,0.00,,---,0.00,VWS V14.01,2013-06-18 17:14:00,
2013-06-18 13:19:00,73.8,70.4,29.80,SSE,162,1.0,7.0,89,0.00,,---,0.00,VWS V14.01,2013-06-18 17:19:00,
2013-06-18 13:24:00,73.7,70.3,29.80,SSE,159,4.0,7.0,89,0.00,,---,0.00,VWS V14.01,2013-06-18 17:24:00,
2013-06-18 13:29:00,73.5,70.1,29.80,SSW,193,1.0,7.0,89,0.00,,---,0.00,VWS V14.01,2013-06-18 17:29:00,
2013-06-18 13:30:00,76.7,72.2,29.82,South,172,4.0,9.0,86,0.00,,---,0.00,VWS V14.01,2013-06-18 17:30:00,
2013-06-18 13:34:00,73.4,70.0,29.79,South,190,0.0,6.0,89,0.00,,---,0.00,VWS V14.01,2013-06-18 17:34:00,
2013-06-18 13:39:00,73.3,70.2,29.79,WNW,282,1.0,7.0,90,0.00,,---,0.00,VWS V14.01,2013-06-18 17:39:00,
2013-06-18 13:44:00,73.3,70.2,29.78,SSE,165,3.0,7.0,90,0.00,,---,0.00,VWS V14.01,2013-06-18 17:44:00,
2013-06-18 13:49:00,73.3,70.2,29.78,SSE,152,1.0,7.0,90,0.00,,---,0.00,VWS V14.01,2013-06-18 17:49:00,
2013-06-18 13:54:00,73.4,70.3,29.78,SW,221,4.0,7.0,90,0.00,,---,0.00,VWS V14.01,2013-06-18 17:54:00,
2013-06-18 13:59:00,73.3,70.2,29.78,SSE,164,0.0,7.0,90,0.00,,---,0.00,VWS V14.01,2013-06-18 17:59:00,
2013-06-18 14:00:00,74.6,70.5,29.81,WSW,243,0.0,8.0,87,0.00,,---,0.00,VWS V14.01,2013-06-18 18:00:00,
2013-06-18 14:04:00,73.4,70.6,29.78,SW,217,2.0,5.0,91,0.00,,---,0.00,VWS V14.01,2013-06-18 18:04:00,
2013-06-18 14:09:00,73.5,70.7,29.78,South,190,4.0,5.0,91,0.00,,---,0.00,VWS V14.01,2013-06-18 18:09:00,
2013-06-18 14:14:00,73.6,70.8,29.78,SW,227,0.0,6.0,91,0.00,,---,0.00,VWS V14.01,2013-06-18 18:14:00,
2013-06-18 14:19:00,73.6,70.8,29.78,SW,223,1.0,6.0,91,0.00,,---,0.00,VWS V14.01,2013-06-18 18:19:00,
2013-06-18 14:24:00,73.7,70.6,29.78,SSW,194,0.0,6.0,90,0.00,,---,0.00,VWS V14.01,2013-06-18 18:24:00,
2013-06-18 14:29:00,73.6,70.5,29.78,SW,219,3.0,6.0,90,0.00,,---,0.00,VWS V14.01,2013-06-18 18:29:00,
2013-06-18 14:30:00,73.5,70.1,29.80,SW,227,2.0,7.0,89,0.00,,---,0.00,VWS V14.01,2013-06-18 18:30:00,
2013-06-18 14:34:00,73.4,70.3,29.77,SSW,192,0.0,5.0,90,0.00,,---,0.00,VWS V14.01,2013-06-18 18:34:00,
2013-06-18 14:39:00,73.1,70.3,29.78,SE,130,0.0,5.0,91,0.00,,---,0.00,VWS V14.01,2013-06-18 18:39:00,
2013-06-18 14:44:00,72.9,70.1,29.78,SSW,196,3.0,5.0,91,0.00,,---,0.00,VWS V14.01,2013-06-18 18:44:00,
2013-06-18 14:49:00,72.5,69.7,29.78,SSW,198,1.0,5.0,91,0.00,,---,0.00,VWS V14.01,2013-06-18 18:49:00,
2013-06-18 14:54:00,72.2,69.4,29.78,SE,135,1.0,5.0,91,0.00,,---,0.00,VWS V14.01,2013-06-18 18:54:00,
2013-06-18 14:59:00,72.1,69.7,29.78,South,188,0.0,5.0,92,0.01,,---,0.01,VWS V14.01,2013-06-18 18:59:00,
2013-06-18 15:00:00,73.3,70.2,29.78,SSE,161,0.0,7.0,90,0.00,,---,0.00,VWS V14.01,2013-06-18 19:00:00,
2013-06-18 15:04:00,71.9,69.4,29.78,SSE,150,0.0,5.0,92,0.01,,---,0.01,VWS V14.01,2013-06-18 19:04:00,
2013-06-18 15:09:00,71.6,69.5,29.78,SSE,165,0.0,5.0,93,0.01,,---,0.01,VWS V14.01,2013-06-18 19:09:00,
2013-06-18 15:14:00,71.2,69.1,29.78,South,189,0.0,5.0,93,0.01,,---,0.01,VWS V14.01,2013-06-18 19:14:00,
2013-06-18 15:19:00,70.9,68.8,29.78,SSW,193,0.0,5.0,93,0.02,,---,0.02,VWS V14.01,2013-06-18 19:19:00,
2013-06-18 15:24:00,70.7,68.6,29.79,WSW,241,0.0,5.0,93,0.03,,---,0.03,VWS V14.01,2013-06-18 19:24:00,
2013-06-18 15:29:00,70.5,68.7,29.79,WSW,244,1.0,7.0,94,0.05,,---,0.05,VWS V14.01,2013-06-18 19:29:00,
2013-06-18 15:30:00,73.6,70.5,29.78,ESE,123,0.0,6.0,90,0.00,,---,0.00,VWS V14.01,2013-06-18 19:30:00,
2013-06-18 15:34:00,70.4,68.6,29.80,WNW,284,3.0,7.0,94,0.26,,---,0.26,VWS V14.01,2013-06-18 19:34:00,
2013-06-18 15:39:00,70.0,67.9,29.80,West,265,3.0,11.0,93,0.44,,---,0.44,VWS V14.01,2013-06-18 19:39:00,
2013-06-18 15:44:00,69.1,67.0,29.83,West,263,5.0,11.0,93,0.53,,---,0.53,VWS V14.01,2013-06-18 19:44:00,
2013-06-18 15:49:00,68.5,66.4,29.83,WNW,302,11.0,13.0,93,0.66,,---,0.66,VWS V14.01,2013-06-18 19:49:00,
2013-06-18 15:54:00,67.8,65.7,29.82,NNW,328,1.0,13.0,93,0.82,,---,0.82,VWS V14.01,2013-06-18 19:54:00,
2013-06-18 15:59:00,67.5,65.7,29.82,NNW,334,7.0,13.0,94,0.84,,---,0.84,VWS V14.01,2013-06-18 19:59:00,
2013-06-18 16:00:00,72.1,69.7,29.78,SSW,202,3.0,5.0,92,0.01,,---,0.01,VWS V14.01,2013-06-18 20:00:00,
2013-06-18 16:04:00,67.3,65.5,29.82,North,349,0.0,5.0,94,0.85,,---,0.86,VWS V14.01,2013-06-18 20:04:00,
2013-06-18 16:09:00,67.1,65.3,29.81,North,350,8.0,12.0,94,0.87,,---,0.88,VWS V14.01,2013-06-18 20:09:00,
2013-06-18 16:14:00,66.8,65.3,29.81,NNE,33,8.0,12.0,95,0.88,,---,0.89,VWS V14.01,2013-06-18 20:14:00,
2013-06-18 16:19:00,66.6,65.1,29.81,North,10,3.0,12.0,95,0.90,,---,0.91,VWS V14.01,2013-06-18 20:19:00,
2013-06-18 16:24:00,66.4,64.9,29.81,North,9,3.0,12.0,95,0.90,,---,0.91,VWS V14.01,2013-06-18 20:24:00,
2013-06-18 16:29:00,66.3,64.8,29.81,NNE,19,3.0,12.0,95,0.91,,---,0.92,VWS V14.01,2013-06-18 20:29:00,
2013-06-18 16:30:00,70.5,68.7,29.79,WSW,256,2.0,7.0,94,0.06,,---,0.06,VWS V14.01,2013-06-18 20:30:00,
2013-06-18 16:34:00,66.1,64.6,29.82,NNE,22,2.0,10.0,95,0.87,,---,0.93,VWS V14.01,2013-06-18 20:34:00,
2013-06-18 16:39:00,66.0,64.5,29.82,East,83,0.0,10.0,95,0.87,,---,0.93,VWS V14.01,2013-06-18 20:39:00,
2013-06-18 16:44:00,66.0,64.5,29.82,NNE,29,1.0,10.0,95,0.89,,---,0.95,VWS V14.01,2013-06-18 20:44:00,
2013-06-18 16:49:00,65.9,64.4,29.82,NNE,24,3.0,10.0,95,0.90,,---,0.96,VWS V14.01,2013-06-18 20:49:00,
2013-06-18 16:54:00,65.9,64.4,29.81,NNE,13,2.0,10.0,95,0.91,,---,0.97,VWS V14.01,2013-06-18 20:54:00,
2013-06-18 16:59:00,65.9,64.7,29.81,NNW,344,5.0,10.0,96,0.92,,---,0.98,VWS V14.01,2013-06-18 20:59:00,
2013-06-18 17:00:00,67.4,65.6,29.82,West,260,2.0,13.0,94,0.85,,---,0.85,VWS V14.01,2013-06-18 21:00:00,
2013-06-18 17:04:00,65.9,64.7,29.81,NNE,16,3.0,12.0,96,0.13,,---,0.98,VWS V14.01,2013-06-18 21:04:00,
2013-06-18 17:09:00,66.0,64.8,29.82,NE,46,2.0,12.0,96,0.14,,---,0.99,VWS V14.01,2013-06-18 21:09:00,
2013-06-18 17:14:00,66.0,64.8,29.82,ENE,66,1.0,12.0,96,0.15,,---,1.00,VWS V14.01,2013-06-18 21:14:00,
2013-06-18 17:19:00,66.1,64.9,29.82,North,11,5.0,12.0,96,0.15,,---,1.00,VWS V14.01,2013-06-18 21:19:00,
2013-06-18 17:24:00,66.1,64.9,29.82,NNE,25,3.0,12.0,96,0.16,,---,1.01,VWS V14.01,2013-06-18 21:24:00,
2013-06-18 17:29:00,66.1,64.9,29.81,NE,37,4.0,12.0,96,0.16,,---,1.01,VWS V14.01,2013-06-18 21:29:00,
2013-06-18 17:30:00,66.3,64.8,29.81,North,5,4.0,12.0,95,0.91,,---,0.92,VWS V14.01,2013-06-18 21:30:00,
2013-06-18 17:34:00,66.1,64.9,29.81,NNE,26,1.0,9.0,96,0.10,,---,1.02,VWS V14.01,2013-06-18 21:34:00,
2013-06-18 17:39:00,66.0,64.8,29.81,NNE,25,3.0,9.0,96,0.10,,---,1.02,VWS V14.01,2013-06-18 21:39:00,
2013-06-18 17:44:00,65.9,64.7,29.80,NNE,23,6.0,9.0,96,0.11,,---,1.03,VWS V14.01,2013-06-18 21:44:00,
2013-06-18 17:49:00,65.8,64.6,29.80,NNW,337,4.0,12.0,96,0.12,,---,1.04,VWS V14.01,2013-06-18 21:49:00,
2013-06-18 17:54:00,65.5,64.0,29.80,NE,55,0.0,12.0,95,0.13,,---,1.05,VWS V14.01,2013-06-18 21:54:00,
2013-06-18 17:59:00,65.4,63.9,29.79,NNE,26,3.0,12.0,95,0.13,,---,1.05,VWS V14.01,2013-06-18 21:59:00,
2013-06-18 18:00:00,65.9,64.7,29.81,NNE,28,5.0,10.0,96,0.92,,---,0.98,VWS V14.01,2013-06-18 22:00:00,
2013-06-18 18:04:00,65.3,63.8,29.79,NE,42,1.0,12.0,95,0.08,,---,1.06,VWS V14.01,2013-06-18 22:04:00,
2013-06-18 18:09:00,65.2,63.7,29.78,NNE,20,3.0,12.0,95,0.09,,---,1.07,VWS V14.01,2013-06-18 22:09:00,
2013-06-18 18:14:00,65.2,63.7,29.78,NE,39,1.0,12.0,95,0.10,,---,1.08,VWS V14.01,2013-06-18 22:14:00,
2013-06-18 18:19:00,65.2,63.7,29.78,North,355,4.0,12.0,95,0.11,,---,1.09,VWS V14.01,2013-06-18 22:19:00,
2013-06-18 18:24:00,65.2,64.0,29.78,ENE,65,4.0,12.0,96,0.12,,---,1.10,VWS V14.01,2013-06-18 22:24:00,
2013-06-18 18:29:00,65.1,63.9,29.79,ENE,59,3.0,12.0,96,0.13,,---,1.11,VWS V14.01,2013-06-18 22:29:00,
2013-06-18 18:30:00,66.1,64.9,29.81,NNE,27,3.0,12.0,96,0.16,,---,1.01,VWS V14.01,2013-06-18 22:30:00,
2013-06-18 18:34:00,65.1,63.9,29.79,NE,53,1.0,7.0,96,0.10,,---,1.11,VWS V14.01,2013-06-18 22:34:00,
2013-06-18 18:39:00,65.1,63.9,29.78,ENE,70,0.0,8.0,96,0.10,,---,1.11,VWS V14.01,2013-06-18 22:39:00,
2013-06-18 18:44:00,65.1,63.9,29.78,NE,49,2.0,8.0,96,0.10,,---,1.11,VWS V14.01,2013-06-18 22:44:00,
2013-06-18 18:49:00,65.1,63.9,29.79,NE,37,1.0,8.0,96,0.10,,---,1.11,VWS V14.01,2013-06-18 22:49:00,
2013-06-18 18:54:00,65.2,64.0,29.78,NNE,30,5.0,8.0,96,0.10,,---,1.11,VWS V14.01,2013-06-18 22:54:00,
2013-06-18 18:59:00,65.2,64.0,29.78,ENE,71,7.0,8.0,96,0.10,,---,1.11,VWS V14.01,2013-06-18 22:59:00,
2013-06-18 19:00:00,65.4,63.9,29.79,NNE,33,7.0,12.0,95,0.13,,---,1.05,VWS V14.01,2013-06-18 23:00:00,
2013-06-18 19:04:00,65.3,64.1,29.77,NNE,28,1.0,5.0,96,0.06,,---,1.11,VWS V14.01,2013-06-18 23:04:00,
2013-06-18 19:09:00,65.4,64.2,29.77,ENE,59,0.0,7.0,96,0.06,,---,1.11,VWS V14.01,2013-06-18 23:09:00,
2013-06-18 19:13:00,65.4,64.2,29.77,East,80,1.0,7.0,96,0.07,,---,1.12,VWS V14.01,2013-06-18 23:13:00,
2013-06-18 19:18:00,65.5,64.3,29.77,ENE,63,3.0,7.0,96,0.07,,---,1.12,VWS V14.01,2013-06-18 23:18:00,
2013-06-18 19:23:00,65.5,64.3,29.77,NE,42,2.0,7.0,96,0.07,,---,1.12,VWS V14.01,2013-06-18 23:23:00,
2013-06-18 19:28:00,65.6,64.4,29.77,ENE,57,0.0,7.0,96,0.07,,---,1.12,VWS V14.01,2013-06-18 23:28:00,
2013-06-18 19:30:00,65.1,63.9,29.79,ENE,69,3.0,12.0,96,0.13,,---,1.11,VWS V14.01,2013-06-18 23:30:00,
2013-06-18 19:33:00,65.6,64.4,29.78,NE,42,1.0,7.0,96,0.01,,---,1.12,VWS V14.01,2013-06-18 23:33:00,
2013-06-18 19:38:00,65.6,64.4,29.78,ENE,60,5.0,7.0,96,0.01,,---,1.12,VWS V14.01,2013-06-18 23:38:00,
2013-06-18 19:43:00,65.6,64.4,29.77,NE,50,4.0,9.0,96,0.01,,---,1.12,VWS V14.01,2013-06-18 23:43:00,
2013-06-18 19:48:00,65.4,64.2,29.77,ENE,58,0.0,9.0,96,0.01,,---,1.12,VWS V14.01,2013-06-18 23:48:00,
2013-06-18 19:53:00,65.4,64.2,29.77,ENE,65,2.0,9.0,96,0.02,,---,1.13,VWS V14.01,2013-06-18 23:53:00,
2013-06-18 19:58:00,65.4,64.2,29.76,East,82,5.0,9.0,96,0.02,,---,1.13,VWS V14.01,2013-06-18 23:58:00,
2013-06-18 20:00:00,65.2,64.0,29.77,ENE,67,1.0,8.0,96,0.10,,---,1.11,VWS V14.01,2013-06-19 00:00:00,
2013-06-18 20:03:00,65.3,64.1,29.77,ENE,71,3.0,6.0,96,0.02,,---,1.13,VWS V14.01,2013-06-19 00:03:00,
2013-06-18 20:08:00,65.3,64.1,29.76,NNE,23,7.0,7.0,96,0.02,,---,1.13,VWS V14.01,2013-06-19 00:08:00,
2013-06-18 20:13:00,65.2,64.0,29.76,NE,48,4.0,8.0,96,0.02,,---,1.13,VWS V14.01,2013-06-19 00:13:00,
2013-06-18 20:18:00,65.1,63.9,29.76,East,98,5.0,8.0,96,0.02,,---,1.13,VWS V14.01,2013-06-19 00:18:00,
2013-06-18 20:23:00,64.9,63.4,29.77,NE,36,5.0,8.0,95,0.02,,---,1.13,VWS V14.01,2013-06-19 00:23:00,
2013-06-18 20:28:00,64.7,63.2,29.77,NE,54,4.0,8.0,95,0.02,,---,1.13,VWS V14.01,2013-06-19 00:28:00,
2013-06-18 20:30:00,65.6,64.4,29.77,ENE,57,0.0,7.0,96,0.07,,---,1.12,VWS V14.01,2013-06-19 00:30:00,
2013-06-18 20:33:00,64.5,63.0,29.77,ENE,72,3.0,5.0,95,0.01,,---,1.13,VWS V14.01,2013-06-19 00:33:00,
2013-06-18 20:38:00,64.4,62.9,29.77,ENE,61,2.0,5.0,95,0.01,,---,1.13,VWS V14.01,2013-06-19 00:38:00,
2013-06-18 20:43:00,64.3,62.8,29.77,NE,42,1.0,5.0,95,0.01,,---,1.13,VWS V14.01,2013-06-19 00:43:00,
2013-06-18 20:48:00,64.2,62.7,29.76,ENE,58,2.0,5.0,95,0.01,,---,1.13,VWS V14.01,2013-06-19 00:48:00,
2013-06-18 20:53:00,64.1,62.6,29.76,ENE,66,0.0,5.0,95,0.01,,---,1.13,VWS V14.01,2013-06-19 00:53:00,
2013-06-18 20:58:00,64.1,62.6,29.77,ENE,66,0.0,5.0,95,0.01,,---,1.13,VWS V14.01,2013-06-19 00:58:00,
2013-06-18 21:00:00,65.4,64.2,29.76,ENE,74,1.0,9.0,96,0.02,,---,1.13,VWS V14.01,2013-06-19 01:00:00,
2013-06-18 21:03:00,64.1,62.6,29.78,NNW,347,1.0,5.0,95,0.00,,---,1.13,VWS V14.01,2013-06-19 01:03:00,
2013-06-18 21:08:00,64.1,62.6,29.78,ENE,63,1.0,7.0,95,0.00,,---,1.13,VWS V14.01,2013-06-19 01:08:00,
2013-06-18 21:13:00,64.2,62.7,29.78,NE,35,5.0,11.0,95,0.00,,---,1.13,VWS V14.01,2013-06-19 01:13:00,
2013-06-18 21:18:00,64.3,62.8,29.76,East,90,6.0,11.0,95,0.00,,---,1.13,VWS V14.01,2013-06-19 01:18:00,
2013-06-18 21:23:00,64.4,62.9,29.76,East,99,3.0,12.0,95,0.00,,---,1.13,VWS V14.01,2013-06-19 01:23:00,
2013-06-18 21:28:00,64.4,62.9,29.77,ENE,74,3.0,14.0,95,0.00,,---,1.13,VWS V14.01,2013-06-19 01:28:00,
2013-06-18 21:30:00,64.7,63.2,29.77,ENE,57,1.0,8.0,95,0.02,,---,1.13,VWS V14.01,2013-06-19 01:30:00,
2013-06-18 21:33:00,64.5,63.0,29.77,NE,41,6.0,13.0,95,0.00,,---,1.13,VWS V14.01,2013-06-19 01:33:00,
2013-06-18 21:38:00,64.5,62.7,29.77,ENE,57,7.0,13.0,94,0.00,,---,1.13,VWS V14.01,2013-06-19 01:38:00,
2013-06-18 21:43:00,64.5,62.7,29.78,ENE,61,7.0,14.0,94,0.00,,---,1.13,VWS V14.01,2013-06-19 01:43:00,
2013-06-18 21:48:00,64.4,62.6,29.77,NE,52,4.0,14.0,94,0.00,,---,1.13,VWS V14.01,2013-06-19 01:48:00,
2013-06-18 21:53:00,64.5,62.7,29.78,NE,45,7.0,14.0,94,0.00,,---,1.13,VWS V14.01,2013-06-19 01:53:00,
2013-06-18 21:58:00,64.5,62.7,29.78,NE,52,1.0,14.0,94,0.00,,---,1.13,VWS V14.01,2013-06-19 01:58:00,
2013-06-18 22:00:00,64.1,62.6,29.77,ENE,66,0.0,5.0,95,0.01,,---,1.13,VWS V14.01,2013-06-19 02:00:00,
2013-06-18 22:03:00,64.5,62.7,29.78,ENE,63,3.0,8.0,94,0.00,,---,1.13,VWS V14.01,2013-06-19 02:03:00,
2013-06-18 22:08:00,64.5,62.7,29.78,NNE,27,2.0,8.0,94,0.00,,---,1.13,VWS V14.01,2013-06-19 02:08:00,
2013-06-18 22:13:00,64.5,62.7,29.79,ENE,59,1.0,8.0,94,0.00,,---,1.13,VWS V14.01,2013-06-19 02:13:00,
2013-06-18 22:18:00,64.5,62.7,29.79,NE,37,11.0,12.0,94,0.00,,---,1.13,VWS V14.01,2013-06-19 02:18:00,
2013-06-18 22:23:00,64.6,62.8,29.80,NE,37,2.0,12.0,94,0.00,,---,1.13,VWS V14.01,2013-06-19 02:23:00,
2013-06-18 22:28:00,64.6,62.8,29.80,NE,40,3.0,12.0,94,0.00,,---,1.13,VWS V14.01,2013-06-19 02:28:00,
2013-06-18 22:30:00,64.4,62.9,29.77,NE,51,11.0,14.0,95,0.00,,---,1.13,VWS V14.01,2013-06-19 02:30:00,
2013-06-18 22:33:00,64.5,62.7,29.80,North,360,0.0,3.0,94,0.00,,---,1.13,VWS V14.01,2013-06-19 02:33:00,
2013-06-18 22:38:00,64.4,62.6,29.81,North,360,3.0,3.0,94,0.00,,---,1.13,VWS V14.01,2013-06-19 02:38:00,
2013-06-18 22:43:00,64.3,62.5,29.81,NW,323,3.0,3.0,94,0.00,,---,1.13,VWS V14.01,2013-06-19 02:43:00,
2013-06-18 22:48:00,64.3,62.8,29.81,NNW,339,0.0,3.0,95,0.00,,---,1.13,VWS V14.01,2013-06-19 02:48:00,
2013-06-18 22:53:00,64.3,62.8,29.80,NNE,26,0.0,3.0,95,0.00,,---,1.13,VWS V14.01,2013-06-19 02:53:00,
2013-06-18 22:58:00,64.2,62.7,29.80,NE,40,1.0,4.0,95,0.00,,---,1.13,VWS V14.01,2013-06-19 02:58:00,
2013-06-18 23:00:00,64.5,62.7,29.78,NE,39,1.0,14.0,94,0.00,,---,1.13,VWS V14.01,2013-06-19 03:00:00,
2013-06-18 23:03:00,64.1,62.6,29.79,NE,40,0.0,3.0,95,0.00,,---,1.13,VWS V14.01,2013-06-19 03:03:00,
2013-06-18 23:08:00,64.0,62.5,29.80,North,360,2.0,5.0,95,0.00,,---,1.13,VWS V14.01,2013-06-19 03:08:00,
2013-06-18 23:13:00,64.0,62.5,29.80,North,5,3.0,5.0,95,0.00,,---,1.13,VWS V14.01,2013-06-19 03:13:00,
2013-06-18 23:18:00,64.0,62.5,29.80,NNW,329,5.0,5.0,95,0.00,,---,1.13,VWS V14.01,2013-06-19 03:18:00,
2013-06-18 23:23:00,63.9,62.4,29.80,NNE,13,0.0,5.0,95,0.00,,---,1.13,VWS V14.01,2013-06-19 03:23:00,
2013-06-18 23:28:00,63.9,62.4,29.80,NNW,342,6.0,6.0,95,0.00,,---,1.13,VWS V14.01,2013-06-19 03:28:00,
2013-06-18 23:30:00,64.5,62.7,29.80,NNE,25,1.0,12.0,94,0.00,,---,1.13,VWS V14.01,2013-06-19 03:30:00,
2013-06-18 23:33:00,63.9,62.4,29.80,North,355,1.0,6.0,95,0.00,,---,1.13,VWS V14.01,2013-06-19 03:33:00,
2013-06-18 23:38:00,63.9,62.7,29.80,NNE,23,4.0,6.0,96,0.00,,---,1.13,VWS V14.01,2013-06-19 03:38:00,
2013-06-18 23:43:00,63.9,62.7,29.80,NNE,16,1.0,6.0,96,0.00,,---,1.13,VWS V14.01,2013-06-19 03:43:00,
2013-06-18 23:48:00,63.9,62.7,29.81,NNE,15,0.0,8.0,96,0.00,,---,1.13,VWS V14.01,2013-06-19 03:48:00,
2013-06-18 23:53:00,63.9,62.7,29.81,NNE,32,2.0,8.0,96,0.00,,---,1.13,VWS V14.01,2013-06-19 03:53:00,
2013-06-18 23:58:00,64.0,62.8,29.81,NNE,24,3.0,8.0,96,0.00,,---,1.13,VWS V14.01,2013-06-19 03:58:00,